F/V Annytia — FMET — position and weather

sailwx.info

Track history (hours):
 
Tides and Currents Weather Stations Pressure Air Temp Water Temp Dewpoint Dewpoint Depression Visibility Wind Speed Wind Dir Waves Ship Positions

F/V Annytia

Last reported at 2017-Nov-17 13:11 UTC. Time now 2017-Nov-18 02:41 UTC.
Position N 49°46' W 001°58'.

Length 17 m.

Type: Fishing. MMSI: 228215700.

Date/timePositionNaut miles runAvg speedWind from/ knotsBaromVisibWave heightAir tempDewpointWater temp
2017-Nov-17 13:11N 49°46' W 001°58'212.7
2017-Nov-17 13:00N 49°46' W 001°55'612.0
2017-Nov-17 12:30N 49°43' W 001°47'510.0
2017-Nov-17 12:00N 49°41' W 001°40'3 5.1
2017-Nov-17 11:28N 49°38' W 001°37'0 0.0
2017-Nov-17 10:58N 49°38' W 001°37'0 0.0
2017-Nov-17 10:28N 49°38' W 001°37'0 0.0
2017-Nov-17 09:58N 49°38' W 001°37'0 0.0
2017-Nov-17 09:28N 49°38' W 001°37'0 0.0
2017-Nov-17 08:58N 49°38' W 001°37'0 0.0
2017-Nov-17 08:28N 49°38' W 001°37'0 0.0
2017-Nov-17 07:58N 49°38' W 001°37'1 3.0
2017-Nov-17 07:30N 49°40' W 001°37'5 9.7
2017-Nov-17 07:00N 49°43' W 001°43'5 9.8
2017-Nov-17 06:30N 49°45' W 001°50'611.3
2017-Nov-17 06:00N 49°46' W 001°59'28 2.1
2017-Nov-16 16:42N 49°48' W 002°42'0 0.2
2017-Nov-16 16:15N 49°48' W 002°43'0 0.4
2017-Nov-16 15:57N 49°48' W 002°43'1 0.6
2017-Nov-16 14:54N 49°47' W 002°43'1 2.1
2017-Nov-16 14:22N 49°46' W 002°43'6 2.0
2017-Nov-16 11:16N 49°49' W 002°34'3 7.2
2017-Nov-16 10:52N 49°49' W 002°29'3 8.6
2017-Nov-16 10:28N 49°50' W 002°24'4 7.9
2017-Nov-16 09:58N 49°51' W 002°18'4 7.3
2017-Nov-16 09:22N 49°52' W 002°11'3 6.7
2017-Nov-16 08:58N 49°52' W 002°07'3 6.1
2017-Nov-16 08:30N 49°53' W 002°03'3 6.1
2017-Nov-16 08:00N 49°56' W 002°01'3 5.4
2017-Nov-16 07:29N 49°59' W 002°00'2 3.2
2017-Nov-16 07:00N 50°00' W 001°60'1 0.3
2017-Nov-16 04:49N 49°59' W 002°01'3 0.3
2017-Nov-15 18:21N 49°57' W 002°01'2 6.8
2017-Nov-15 18:00N 49°55' W 001°59'3 6.9
2017-Nov-15 17:30N 49°52' W 001°55'4 7.0
2017-Nov-15 17:00N 49°50' W 001°52'3 6.7
2017-Nov-15 16:30N 49°47' W 001°49'4 7.1
2017-Nov-15 16:00N 49°44' W 001°45'4 7.8
2017-Nov-15 15:30N 49°41' W 001°42'4 7.4
2017-Nov-15 15:00N 49°39' W 001°37'0 0.9
2017-Nov-15 14:30N 49°39' W 001°37'0 0.0
2017-Nov-15 14:00N 49°39' W 001°37'0 0.0
2017-Nov-15 13:30N 49°39' W 001°37'0 0.0
2017-Nov-15 13:00N 49°39' W 001°37'0 0.0
2017-Nov-15 12:30N 49°39' W 001°37'0 0.0
2017-Nov-15 12:00N 49°39' W 001°37'0 0.0
2017-Nov-15 11:30N 49°39' W 001°37'0 0.0
2017-Nov-15 11:00N 49°39' W 001°37'0 0.0
2017-Nov-15 10:30N 49°39' W 001°37'0 0.0
2017-Nov-15 10:00N 49°39' W 001°37'0 0.0
2017-Nov-15 09:30N 49°39' W 001°37'0 0.0
2017-Nov-15 09:00N 49°39' W 001°37'0 0.0
2017-Nov-15 08:30N 49°39' W 001°37'0 0.0
2017-Nov-15 08:00N 49°39' W 001°37'0 0.0
2017-Nov-15 07:30N 49°39' W 001°37'0 0.0
2017-Nov-15 07:00N 49°39' W 001°37'0 0.0
2017-Nov-15 06:30N 49°39' W 001°37'0 0.0
2017-Nov-15 06:00N 49°39' W 001°37'0 0.0
2017-Nov-15 05:30N 49°39' W 001°37'0 0.0
2017-Nov-15 05:00N 49°39' W 001°37'0 0.0
2017-Nov-15 04:30N 49°39' W 001°37'0 0.0
2017-Nov-15 04:00N 49°39' W 001°37'0 0.0
2017-Nov-15 03:30N 49°39' W 001°37'0 0.0
2017-Nov-15 03:00N 49°39' W 001°37'0 0.0
2017-Nov-15 02:30N 49°39' W 001°37'0 0.0
2017-Nov-15 02:00N 49°39' W 001°37'0 0.0
2017-Nov-15 01:30N 49°39' W 001°37'0 0.0
2017-Nov-15 01:00N 49°39' W 001°37'0 0.0
2017-Nov-15 00:30N 49°39' W 001°37'0 0.0
2017-Nov-15 00:00N 49°39' W 001°37'0 0.0
2017-Nov-14 23:30N 49°39' W 001°37'0 0.0
2017-Nov-14 23:00N 49°39' W 001°37'0 0.0
2017-Nov-14 22:30N 49°39' W 001°37'0 0.0
2017-Nov-14 22:00N 49°39' W 001°37'0 0.0
2017-Nov-14 21:30N 49°39' W 001°37'0 0.0
2017-Nov-14 21:00N 49°39' W 001°37'0 0.0
2017-Nov-14 20:30N 49°39' W 001°37'0 0.0
2017-Nov-14 20:00N 49°39' W 001°37'0 0.0
2017-Nov-14 19:30N 49°39' W 001°37'0 0.0
2017-Nov-14 19:00N 49°39' W 001°37'0 0.0
2017-Nov-14 18:30N 49°39' W 001°37'0 0.0
2017-Nov-14 18:00N 49°39' W 001°37'0 0.0
2017-Nov-14 17:30N 49°39' W 001°37'0 0.0
2017-Nov-14 17:00N 49°39' W 001°37'0 0.0
2017-Nov-14 16:30N 49°39' W 001°37'0 0.0
2017-Nov-14 16:00N 49°39' W 001°37'0 0.0
2017-Nov-14 15:30N 49°39' W 001°37'0 0.0
2017-Nov-14 15:00N 49°39' W 001°37'0 0.0
2017-Nov-14 14:30N 49°39' W 001°37'0 0.0
2017-Nov-14 14:00N 49°39' W 001°37'0 0.0
2017-Nov-14 13:30N 49°39' W 001°37'0 0.0
2017-Nov-14 13:00N 49°39' W 001°37'0 0.0
2017-Nov-14 12:30N 49°39' W 001°37'0 0.0
2017-Nov-14 12:00N 49°39' W 001°37'0 0.0
2017-Nov-14 11:30N 49°39' W 001°37'0 0.0
2017-Nov-14 11:00N 49°39' W 001°37'0 0.0
2017-Nov-14 10:30N 49°39' W 001°37'0 0.0
2017-Nov-14 10:00N 49°39' W 001°37'0 0.0
2017-Nov-14 09:30N 49°39' W 001°37'0 0.0
2017-Nov-14 09:00N 49°39' W 001°37'0 0.0
2017-Nov-14 08:30N 49°39' W 001°37'0 0.0
2017-Nov-14 08:00N 49°39' W 001°37'0 0.0
2017-Nov-14 07:30N 49°39' W 001°37'0 0.0
2017-Nov-14 07:00N 49°39' W 001°37'0 0.0
2017-Nov-14 06:30N 49°39' W 001°37'0 0.0
2017-Nov-14 06:00N 49°39' W 001°37'0 0.0
2017-Nov-14 05:30N 49°39' W 001°37'0 0.0
2017-Nov-14 05:00N 49°39' W 001°37'0 0.0
2017-Nov-14 04:30N 49°39' W 001°37'0 0.0
2017-Nov-14 04:00N 49°39' W 001°37'0 0.0
2017-Nov-14 03:30N 49°39' W 001°37'0 0.0
2017-Nov-14 03:00N 49°39' W 001°37'15 0.4
2017-Nov-12 15:58N 49°53' W 001°41'4 8.6
2017-Nov-12 15:30N 49°54' W 001°47'4 8.9
2017-Nov-12 15:01N 49°54' W 001°54'5 8.8
2017-Nov-12 14:27N 49°55' W 002°02'23 0.9
2017-Nov-11 13:48N 49°49' W 002°36'0 1.2
2017-Nov-11 13:28N 49°49' W 002°36'7 4.8
2017-Nov-11 12:04N 49°47' W 002°46'1 4.5
2017-Nov-11 11:52N 49°47' W 002°48'1 1.7
2017-Nov-11 11:18N 49°47' W 002°49'1 1.0
2017-Nov-11 10:18N 49°47' W 002°47'1 1.3
2017-Nov-11 09:39N 49°47' W 002°46'1 1.9
2017-Nov-11 09:15N 49°47' W 002°45'1 2.1
2017-Nov-11 08:59N 49°47' W 002°44'2 1.5
2017-Nov-11 07:52N 49°46' W 002°46'32 2.3
2017-Nov-10 18:03N 50°00' W 002°01'0 0.3
2017-Nov-10 17:54N 50°00' W 002°01'1 3.0
2017-Nov-10 17:25N 49°59' W 001°60'3 7.8
2017-Nov-10 17:00N 49°56' W 001°57'4 8.0
2017-Nov-10 16:30N 49°53' W 001°53'4 8.2
2017-Nov-10 16:00N 49°50' W 001°49'4 7.9
2017-Nov-10 15:30N 49°47' W 001°46'4 7.7
2017-Nov-10 15:00N 49°44' W 001°42'4 8.0
2017-Nov-10 14:31N 49°40' W 001°39'2 4.6
2017-Nov-10 14:00N 49°38' W 001°37'0 0.0
2017-Nov-10 13:30N 49°38' W 001°37'0 0.0
2017-Nov-10 13:00N 49°38' W 001°37'0 0.0
2017-Nov-10 12:30N 49°38' W 001°37'0 0.0
2017-Nov-10 12:00N 49°38' W 001°37'0 0.0
2017-Nov-10 11:30N 49°38' W 001°37'0 0.0
2017-Nov-10 11:00N 49°38' W 001°37'2 3.2
2017-Nov-10 10:30N 49°40' W 001°38'611.2
2017-Nov-10 10:00N 49°43' W 001°45'611.1
2017-Nov-10 09:30N 49°45' W 001°53'14 8.9
2017-Nov-10 07:58N 49°48' W 002°14'23 1.5
2017-Nov-09 16:37N 49°46' W 002°49'0 0.2
2017-Nov-09 16:22N 49°46' W 002°49'1 3.1
2017-Nov-09 15:58N 49°46' W 002°47'2 2.8
2017-Nov-09 15:25N 49°46' W 002°45'2 3.0
2017-Nov-09 14:54N 49°46' W 002°43'1 2.4
2017-Nov-09 14:22N 49°46' W 002°41'1 2.0
2017-Nov-09 13:58N 49°47' W 002°40'1 1.7
2017-Nov-09 13:28N 49°47' W 002°38'1 2.9
2017-Nov-09 12:58N 49°47' W 002°36'1 0.3
2017-Nov-09 10:30N 49°48' W 002°36'0 0.7
2017-Nov-09 09:52N 49°48' W 002°36'1 2.6
2017-Nov-09 09:27N 49°47' W 002°38'3 1.8
2017-Nov-09 07:54N 49°46' W 002°42'5 0.3
2017-Nov-08 15:49N 49°44' W 002°49'1 0.8
2017-Nov-08 14:53N 49°44' W 002°50'1 3.0
2017-Nov-08 14:28N 49°44' W 002°52'3 3.6
2017-Nov-08 13:40N 49°42' W 002°55'1 4.4
2017-Nov-08 13:22N 49°41' W 002°56'5 6.1
2017-Nov-08 12:34N 49°38' W 003°02'65 8.8
2017-Nov-08 05:11N 48°54' W 004°16'2 9.4
2017-Nov-08 05:00N 48°53' W 004°18'5 9.1
2017-Nov-08 04:30N 48°50' W 004°23'5 8.9
2017-Nov-08 03:58N 48°47' W 004°28'4 8.7
2017-Nov-08 03:30N 48°44' W 004°33'4 8.5
2017-Nov-08 03:00N 48°41' W 004°38'4 8.3
2017-Nov-08 02:30N 48°38' W 004°42'4 8.7
2017-Nov-08 02:00N 48°35' W 004°47'5 9.5
2017-Nov-08 01:30N 48°31' W 004°49'5 9.1
2017-Nov-08 01:00N 48°26' W 004°50'5 9.0
2017-Nov-08 00:30N 48°22' W 004°48'4 8.9
2017-Nov-08 00:00N 48°17' W 004°47'4 8.7
2017-Nov-07 23:30N 48°13' W 004°46'4 8.3
2017-Nov-07 23:00N 48°09' W 004°46'4 8.0
2017-Nov-07 22:30N 48°05' W 004°46'3 6.6
2017-Nov-07 22:01N 48°02' W 004°45'4 8.3
2017-Nov-07 21:30N 47°59' W 004°41'4 8.4
2017-Nov-07 21:00N 47°56' W 004°37'4 8.2
2017-Nov-07 20:30N 47°53' W 004°32'4 7.9
2017-Nov-07 19:58N 47°50' W 004°28'3 7.5
2017-Nov-07 19:30N 47°47' W 004°25'4 7.6
2017-Nov-07 19:00N 47°45' W 004°20'4 8.5
2017-Nov-07 18:30N 47°45' W 004°14'5 8.8
2017-Nov-07 18:00N 47°45' W 004°07'5 8.7
2017-Nov-07 17:27N 47°45' W 003°60'4 8.7
2017-Nov-07 17:00N 47°44' W 003°54'4 9.0
2017-Nov-07 16:30N 47°43' W 003°48'4 8.8
2017-Nov-07 16:00N 47°42' W 003°41'4 8.6
2017-Nov-07 15:30N 47°42' W 003°35'4 8.6
2017-Nov-07 15:00N 47°41' W 003°29'4 7.8
2017-Nov-07 14:30N 47°42' W 003°23'  
Track history (hours):
 
Tides and Currents Weather Stations Pressure Air Temp Water Temp Dewpoint Dewpoint Depression Visibility Wind Speed Wind Dir Waves Ship Positions

F/V Annytia

Last reported at 2017-Nov-17 13:11 UTC. Time now 2017-Nov-18 02:41 UTC.
Position N 49°46' W 001°58'.

Length 17 m.

Type: Fishing. MMSI: 228215700.

Date/timePositionNaut miles runAvg speedWind from/ knotsBaromVisibWave heightAir tempDewpointWater temp
2017-Nov-17 13:11N 49°46' W 001°58'212.7
2017-Nov-17 13:00N 49°46' W 001°55'612.0
2017-Nov-17 12:30N 49°43' W 001°47'510.0
2017-Nov-17 12:00N 49°41' W 001°40'3 5.1
2017-Nov-17 11:28N 49°38' W 001°37'0 0.0
2017-Nov-17 10:58N 49°38' W 001°37'0 0.0
2017-Nov-17 10:28N 49°38' W 001°37'0 0.0
2017-Nov-17 09:58N 49°38' W 001°37'0 0.0
2017-Nov-17 09:28N 49°38' W 001°37'0 0.0
2017-Nov-17 08:58N 49°38' W 001°37'0 0.0
2017-Nov-17 08:28N 49°38' W 001°37'0 0.0
2017-Nov-17 07:58N 49°38' W 001°37'1 3.0
2017-Nov-17 07:30N 49°40' W 001°37'5 9.7
2017-Nov-17 07:00N 49°43' W 001°43'5 9.8
2017-Nov-17 06:30N 49°45' W 001°50'611.3
2017-Nov-17 06:00N 49°46' W 001°59'28 2.1
2017-Nov-16 16:42N 49°48' W 002°42'0 0.2
2017-Nov-16 16:15N 49°48' W 002°43'0 0.4
2017-Nov-16 15:57N 49°48' W 002°43'1 0.6
2017-Nov-16 14:54N 49°47' W 002°43'1 2.1
2017-Nov-16 14:22N 49°46' W 002°43'6 2.0
2017-Nov-16 11:16N 49°49' W 002°34'3 7.2
2017-Nov-16 10:52N 49°49' W 002°29'3 8.6
2017-Nov-16 10:28N 49°50' W 002°24'4 7.9
2017-Nov-16 09:58N 49°51' W 002°18'4 7.3
2017-Nov-16 09:22N 49°52' W 002°11'3 6.7
2017-Nov-16 08:58N 49°52' W 002°07'3 6.1
2017-Nov-16 08:30N 49°53' W 002°03'3 6.1
2017-Nov-16 08:00N 49°56' W 002°01'3 5.4
2017-Nov-16 07:29N 49°59' W 002°00'2 3.2
2017-Nov-16 07:00N 50°00' W 001°60'1 0.3
2017-Nov-16 04:49N 49°59' W 002°01'3 0.3
2017-Nov-15 18:21N 49°57' W 002°01'2 6.8
2017-Nov-15 18:00N 49°55' W 001°59'3 6.9
2017-Nov-15 17:30N 49°52' W 001°55'4 7.0
2017-Nov-15 17:00N 49°50' W 001°52'3 6.7
2017-Nov-15 16:30N 49°47' W 001°49'4 7.1
2017-Nov-15 16:00N 49°44' W 001°45'4 7.8
2017-Nov-15 15:30N 49°41' W 001°42'4 7.4
2017-Nov-15 15:00N 49°39' W 001°37'0 0.9
2017-Nov-15 14:30N 49°39' W 001°37'0 0.0
2017-Nov-15 14:00N 49°39' W 001°37'0 0.0
2017-Nov-15 13:30N 49°39' W 001°37'0 0.0
2017-Nov-15 13:00N 49°39' W 001°37'0 0.0
2017-Nov-15 12:30N 49°39' W 001°37'0 0.0
2017-Nov-15 12:00N 49°39' W 001°37'0 0.0
2017-Nov-15 11:30N 49°39' W 001°37'0 0.0
2017-Nov-15 11:00N 49°39' W 001°37'0 0.0
2017-Nov-15 10:30N 49°39' W 001°37'0 0.0
2017-Nov-15 10:00N 49°39' W 001°37'0 0.0
2017-Nov-15 09:30N 49°39' W 001°37'0 0.0
2017-Nov-15 09:00N 49°39' W 001°37'0 0.0
2017-Nov-15 08:30N 49°39' W 001°37'0 0.0
2017-Nov-15 08:00N 49°39' W 001°37'0 0.0
2017-Nov-15 07:30N 49°39' W 001°37'0 0.0
2017-Nov-15 07:00N 49°39' W 001°37'0 0.0
2017-Nov-15 06:30N 49°39' W 001°37'0 0.0
2017-Nov-15 06:00N 49°39' W 001°37'0 0.0
2017-Nov-15 05:30N 49°39' W 001°37'0 0.0
2017-Nov-15 05:00N 49°39' W 001°37'0 0.0
2017-Nov-15 04:30N 49°39' W 001°37'0 0.0
2017-Nov-15 04:00N 49°39' W 001°37'0 0.0
2017-Nov-15 03:30N 49°39' W 001°37'0 0.0
2017-Nov-15 03:00N 49°39' W 001°37'0 0.0
2017-Nov-15 02:30N 49°39' W 001°37'0 0.0
2017-Nov-15 02:00N 49°39' W 001°37'0 0.0
2017-Nov-15 01:30N 49°39' W 001°37'0 0.0
2017-Nov-15 01:00N 49°39' W 001°37'0 0.0
2017-Nov-15 00:30N 49°39' W 001°37'0 0.0
2017-Nov-15 00:00N 49°39' W 001°37'0 0.0
2017-Nov-14 23:30N 49°39' W 001°37'0 0.0
2017-Nov-14 23:00N 49°39' W 001°37'0 0.0
2017-Nov-14 22:30N 49°39' W 001°37'0 0.0
2017-Nov-14 22:00N 49°39' W 001°37'0 0.0
2017-Nov-14 21:30N 49°39' W 001°37'0 0.0
2017-Nov-14 21:00N 49°39' W 001°37'0 0.0
2017-Nov-14 20:30N 49°39' W 001°37'0 0.0
2017-Nov-14 20:00N 49°39' W 001°37'0 0.0
2017-Nov-14 19:30N 49°39' W 001°37'0 0.0
2017-Nov-14 19:00N 49°39' W 001°37'0 0.0
2017-Nov-14 18:30N 49°39' W 001°37'0 0.0
2017-Nov-14 18:00N 49°39' W 001°37'0 0.0
2017-Nov-14 17:30N 49°39' W 001°37'0 0.0
2017-Nov-14 17:00N 49°39' W 001°37'0 0.0
2017-Nov-14 16:30N 49°39' W 001°37'0 0.0
2017-Nov-14 16:00N 49°39' W 001°37'0 0.0
2017-Nov-14 15:30N 49°39' W 001°37'0 0.0
2017-Nov-14 15:00N 49°39' W 001°37'0 0.0
2017-Nov-14 14:30N 49°39' W 001°37'0 0.0
2017-Nov-14 14:00N 49°39' W 001°37'0 0.0
2017-Nov-14 13:30N 49°39' W 001°37'0 0.0
2017-Nov-14 13:00N 49°39' W 001°37'0 0.0
2017-Nov-14 12:30N 49°39' W 001°37'0 0.0
2017-Nov-14 12:00N 49°39' W 001°37'0 0.0
2017-Nov-14 11:30N 49°39' W 001°37'0 0.0
2017-Nov-14 11:00N 49°39' W 001°37'0 0.0
2017-Nov-14 10:30N 49°39' W 001°37'0 0.0
2017-Nov-14 10:00N 49°39' W 001°37'0 0.0
2017-Nov-14 09:30N 49°39' W 001°37'0 0.0
2017-Nov-14 09:00N 49°39' W 001°37'0 0.0
2017-Nov-14 08:30N 49°39' W 001°37'0 0.0
2017-Nov-14 08:00N 49°39' W 001°37'0 0.0
2017-Nov-14 07:30N 49°39' W 001°37'0 0.0
2017-Nov-14 07:00N 49°39' W 001°37'0 0.0
2017-Nov-14 06:30N 49°39' W 001°37'0 0.0
2017-Nov-14 06:00N 49°39' W 001°37'0 0.0
2017-Nov-14 05:30N 49°39' W 001°37'0 0.0
2017-Nov-14 05:00N 49°39' W 001°37'0 0.0
2017-Nov-14 04:30N 49°39' W 001°37'0 0.0
2017-Nov-14 04:00N 49°39' W 001°37'0 0.0
2017-Nov-14 03:30N 49°39' W 001°37'0 0.0
2017-Nov-14 03:00N 49°39' W 001°37'15 0.4
2017-Nov-12 15:58N 49°53' W 001°41'4 8.6
2017-Nov-12 15:30N 49°54' W 001°47'4 8.9
2017-Nov-12 15:01N 49°54' W 001°54'5 8.8
2017-Nov-12 14:27N 49°55' W 002°02'23 0.9
2017-Nov-11 13:48N 49°49' W 002°36'0 1.2
2017-Nov-11 13:28N 49°49' W 002°36'7 4.8
2017-Nov-11 12:04N 49°47' W 002°46'1 4.5
2017-Nov-11 11:52N 49°47' W 002°48'1 1.7
2017-Nov-11 11:18N 49°47' W 002°49'1 1.0
2017-Nov-11 10:18N 49°47' W 002°47'1 1.3
2017-Nov-11 09:39N 49°47' W 002°46'1 1.9
2017-Nov-11 09:15N 49°47' W 002°45'1 2.1
2017-Nov-11 08:59N 49°47' W 002°44'2 1.5
2017-Nov-11 07:52N 49°46' W 002°46'32 2.3
2017-Nov-10 18:03N 50°00' W 002°01'0 0.3
2017-Nov-10 17:54N 50°00' W 002°01'1 3.0
2017-Nov-10 17:25N 49°59' W 001°60'3 7.8
2017-Nov-10 17:00N 49°56' W 001°57'4 8.0
2017-Nov-10 16:30N 49°53' W 001°53'4 8.2
2017-Nov-10 16:00N 49°50' W 001°49'4 7.9
2017-Nov-10 15:30N 49°47' W 001°46'4 7.7
2017-Nov-10 15:00N 49°44' W 001°42'4 8.0
2017-Nov-10 14:31N 49°40' W 001°39'2 4.6
2017-Nov-10 14:00N 49°38' W 001°37'0 0.0
2017-Nov-10 13:30N 49°38' W 001°37'0 0.0
2017-Nov-10 13:00N 49°38' W 001°37'0 0.0
2017-Nov-10 12:30N 49°38' W 001°37'0 0.0
2017-Nov-10 12:00N 49°38' W 001°37'0 0.0
2017-Nov-10 11:30N 49°38' W 001°37'0 0.0
2017-Nov-10 11:00N 49°38' W 001°37'2 3.2
2017-Nov-10 10:30N 49°40' W 001°38'611.2
2017-Nov-10 10:00N 49°43' W 001°45'611.1
2017-Nov-10 09:30N 49°45' W 001°53'14 8.9
2017-Nov-10 07:58N 49°48' W 002°14'23 1.5
2017-Nov-09 16:37N 49°46' W 002°49'0 0.2
2017-Nov-09 16:22N 49°46' W 002°49'1 3.1
2017-Nov-09 15:58N 49°46' W 002°47'2 2.8
2017-Nov-09 15:25N 49°46' W 002°45'2 3.0
2017-Nov-09 14:54N 49°46' W 002°43'1 2.4
2017-Nov-09 14:22N 49°46' W 002°41'1 2.0
2017-Nov-09 13:58N 49°47' W 002°40'1 1.7
2017-Nov-09 13:28N 49°47' W 002°38'1 2.9
2017-Nov-09 12:58N 49°47' W 002°36'1 0.3
2017-Nov-09 10:30N 49°48' W 002°36'0 0.7
2017-Nov-09 09:52N 49°48' W 002°36'1 2.6
2017-Nov-09 09:27N 49°47' W 002°38'3 1.8
2017-Nov-09 07:54N 49°46' W 002°42'5 0.3
2017-Nov-08 15:49N 49°44' W 002°49'1 0.8
2017-Nov-08 14:53N 49°44' W 002°50'1 3.0
2017-Nov-08 14:28N 49°44' W 002°52'3 3.6
2017-Nov-08 13:40N 49°42' W 002°55'1 4.4
2017-Nov-08 13:22N 49°41' W 002°56'5 6.1
2017-Nov-08 12:34N 49°38' W 003°02'65 8.8
2017-Nov-08 05:11N 48°54' W 004°16'2 9.4
2017-Nov-08 05:00N 48°53' W 004°18'5 9.1
2017-Nov-08 04:30N 48°50' W 004°23'5 8.9
2017-Nov-08 03:58N 48°47' W 004°28'4 8.7
2017-Nov-08 03:30N 48°44' W 004°33'4 8.5
2017-Nov-08 03:00N 48°41' W 004°38'4 8.3
2017-Nov-08 02:30N 48°38' W 004°42'4 8.7
2017-Nov-08 02:00N 48°35' W 004°47'5 9.5
2017-Nov-08 01:30N 48°31' W 004°49'5 9.1
2017-Nov-08 01:00N 48°26' W 004°50'5 9.0
2017-Nov-08 00:30N 48°22' W 004°48'4 8.9
2017-Nov-08 00:00N 48°17' W 004°47'4 8.7
2017-Nov-07 23:30N 48°13' W 004°46'4 8.3
2017-Nov-07 23:00N 48°09' W 004°46'4 8.0
2017-Nov-07 22:30N 48°05' W 004°46'3 6.6
2017-Nov-07 22:01N 48°02' W 004°45'4 8.3
2017-Nov-07 21:30N 47°59' W 004°41'4 8.4
2017-Nov-07 21:00N 47°56' W 004°37'4 8.2
2017-Nov-07 20:30N 47°53' W 004°32'4 7.9
2017-Nov-07 19:58N 47°50' W 004°28'3 7.5
2017-Nov-07 19:30N 47°47' W 004°25'4 7.6
2017-Nov-07 19:00N 47°45' W 004°20'4 8.5
2017-Nov-07 18:30N 47°45' W 004°14'5 8.8
2017-Nov-07 18:00N 47°45' W 004°07'5 8.7
2017-Nov-07 17:27N 47°45' W 003°60'4 8.7
2017-Nov-07 17:00N 47°44' W 003°54'4 9.0
2017-Nov-07 16:30N 47°43' W 003°48'4 8.8
2017-Nov-07 16:00N 47°42' W 003°41'4 8.6
2017-Nov-07 15:30N 47°42' W 003°35'4 8.6
2017-Nov-07 15:00N 47°41' W 003°29'4 7.8
2017-Nov-07 14:30N 47°42' W 003°23'  

Dump ship's entire track history